sensor_id;sensor_type;location;lat;lon;timestamp;P1;durP1;ratioP1;P2;durP2;ratioP2
26319;SDS011;14024;52.226;5.200;2023-08-06T00:01:04;19.10;;;12.30;;
26319;SDS011;14024;52.226;5.200;2023-08-06T00:03:30;18.60;;;12.63;;
26319;SDS011;14024;52.226;5.200;2023-08-06T00:05:56;20.40;;;12.15;;
26319;SDS011;14024;52.226;5.200;2023-08-06T00:08:22;20.92;;;13.00;;
26319;SDS011;14024;52.226;5.200;2023-08-06T00:10:48;20.90;;;13.25;;
26319;SDS011;14024;52.226;5.200;2023-08-06T00:13:14;23.52;;;13.30;;
26319;SDS011;14024;52.226;5.200;2023-08-06T00:15:40;22.67;;;13.48;;
26319;SDS011;14024;52.226;5.200;2023-08-06T00:18:06;22.13;;;13.63;;
26319;SDS011;14024;52.226;5.200;2023-08-06T00:20:32;20.70;;;13.52;;
26319;SDS011;14024;52.226;5.200;2023-08-06T00:22:58;21.52;;;12.98;;
26319;SDS011;14024;52.226;5.200;2023-08-06T00:25:24;23.35;;;13.35;;
26319;SDS011;14024;52.226;5.200;2023-08-06T00:27:51;21.83;;;13.23;;
26319;SDS011;14024;52.226;5.200;2023-08-06T00:30:17;20.95;;;14.00;;
26319;SDS011;14024;52.226;5.200;2023-08-06T00:32:43;22.23;;;13.45;;
26319;SDS011;14024;52.226;5.200;2023-08-06T00:35:10;22.13;;;14.00;;
26319;SDS011;14024;52.226;5.200;2023-08-06T00:37:38;21.20;;;13.32;;
26319;SDS011;14024;52.226;5.200;2023-08-06T00:40:04;24.38;;;14.25;;
26319;SDS011;14024;52.226;5.200;2023-08-06T00:42:31;21.60;;;13.43;;
26319;SDS011;14024;52.226;5.200;2023-08-06T00:44:57;22.05;;;13.70;;
26319;SDS011;14024;52.226;5.200;2023-08-06T00:47:23;22.10;;;13.77;;
26319;SDS011;14024;52.226;5.200;2023-08-06T00:49:49;21.73;;;13.05;;
26319;SDS011;14024;52.226;5.200;2023-08-06T00:52:15;24.45;;;13.55;;
26319;SDS011;14024;52.226;5.200;2023-08-06T00:54:41;20.35;;;12.90;;
26319;SDS011;14024;52.226;5.200;2023-08-06T00:57:07;21.27;;;12.32;;
26319;SDS011;14024;52.226;5.200;2023-08-06T00:59:34;21.02;;;12.32;;
26319;SDS011;14024;52.226;5.200;2023-08-06T01:02:01;22.13;;;13.00;;
26319;SDS011;14024;52.226;5.200;2023-08-06T01:04:27;17.98;;;11.43;;
26319;SDS011;14024;52.226;5.200;2023-08-06T01:09:51;18.58;;;11.52;;
26319;SDS011;14024;52.226;5.200;2023-08-06T01:17:21;21.65;;;11.38;;
26319;SDS011;14024;52.226;5.200;2023-08-06T01:19:51;18.50;;;11.93;;
26319;SDS011;14024;52.226;5.200;2023-08-06T01:22:17;23.15;;;11.68;;
26319;SDS011;14024;52.226;5.200;2023-08-06T01:24:45;18.88;;;11.45;;
26319;SDS011;14024;52.226;5.200;2023-08-06T01:27:14;19.35;;;11.98;;
26319;SDS011;14024;52.226;5.200;2023-08-06T01:29:44;21.10;;;11.88;;
26319;SDS011;14024;52.226;5.200;2023-08-06T01:32:12;21.23;;;13.00;;
26319;SDS011;14024;52.226;5.200;2023-08-06T01:34:40;28.27;;;12.80;;
26319;SDS011;14024;52.226;5.200;2023-08-06T01:37:07;17.90;;;10.88;;
26319;SDS011;14024;52.226;5.200;2023-08-06T01:39:33;24.98;;;12.20;;
26319;SDS011;14024;52.226;5.200;2023-08-06T01:41:59;20.40;;;11.98;;
26319;SDS011;14024;52.226;5.200;2023-08-06T01:44:25;23.33;;;12.13;;
26319;SDS011;14024;52.226;5.200;2023-08-06T01:46:51;20.30;;;11.93;;
26319;SDS011;14024;52.226;5.200;2023-08-06T01:49:17;23.02;;;12.18;;
26319;SDS011;14024;52.226;5.200;2023-08-06T01:51:43;18.67;;;12.20;;
26319;SDS011;14024;52.226;5.200;2023-08-06T01:54:09;18.67;;;11.63;;
26319;SDS011;14024;52.226;5.200;2023-08-06T01:56:35;22.17;;;12.23;;
26319;SDS011;14024;52.226;5.200;2023-08-06T01:59:03;19.95;;;12.18;;
26319;SDS011;14024;52.226;5.200;2023-08-06T02:01:29;25.35;;;13.05;;
26319;SDS011;14024;52.226;5.200;2023-08-06T02:03:55;21.90;;;12.45;;
26319;SDS011;14024;52.226;5.200;2023-08-06T02:06:21;21.90;;;13.57;;
26319;SDS011;14024;52.226;5.200;2023-08-06T02:08:47;23.73;;;12.57;;
26319;SDS011;14024;52.226;5.200;2023-08-06T02:11:13;27.38;;;13.38;;
26319;SDS011;14024;52.226;5.200;2023-08-06T02:13:39;20.42;;;12.85;;
26319;SDS011;14024;52.226;5.200;2023-08-06T02:16:06;22.45;;;13.13;;
26319;SDS011;14024;52.226;5.200;2023-08-06T02:18:33;21.73;;;14.05;;
26319;SDS011;14024;52.226;5.200;2023-08-06T02:20:59;28.73;;;14.95;;
26319;SDS011;14024;52.226;5.200;2023-08-06T02:23:25;23.05;;;14.07;;
26319;SDS011;14024;52.226;5.200;2023-08-06T02:26:01;30.38;;;15.77;;
26319;SDS011;14024;52.226;5.200;2023-08-06T02:28:28;30.27;;;15.40;;
26319;SDS011;14024;52.226;5.200;2023-08-06T02:30:54;25.23;;;15.65;;
26319;SDS011;14024;52.226;5.200;2023-08-06T02:33:20;26.70;;;15.43;;
26319;SDS011;14024;52.226;5.200;2023-08-06T02:35:46;32.95;;;16.63;;
26319;SDS011;14024;52.226;5.200;2023-08-06T02:38:12;28.38;;;16.33;;
26319;SDS011;14024;52.226;5.200;2023-08-06T02:40:47;32.33;;;17.45;;
26319;SDS011;14024;52.226;5.200;2023-08-06T02:43:13;29.13;;;16.42;;
26319;SDS011;14024;52.226;5.200;2023-08-06T02:45:39;28.55;;;16.85;;
26319;SDS011;14024;52.226;5.200;2023-08-06T02:48:05;27.95;;;17.45;;
26319;SDS011;14024;52.226;5.200;2023-08-06T02:50:37;33.38;;;16.88;;
26319;SDS011;14024;52.226;5.200;2023-08-06T02:53:04;27.27;;;16.60;;
26319;SDS011;14024;52.226;5.200;2023-08-06T02:55:30;27.20;;;16.85;;
26319;SDS011;14024;52.226;5.200;2023-08-06T02:57:56;29.05;;;16.27;;
26319;SDS011;14024;52.226;5.200;2023-08-06T03:00:22;28.52;;;16.20;;
26319;SDS011;14024;52.226;5.200;2023-08-06T03:02:48;29.65;;;17.05;;
26319;SDS011;14024;52.226;5.200;2023-08-06T03:05:14;24.63;;;15.18;;
26319;SDS011;14024;52.226;5.200;2023-08-06T03:07:40;26.15;;;16.17;;
26319;SDS011;14024;52.226;5.200;2023-08-06T03:10:06;26.35;;;16.15;;
26319;SDS011;14024;52.226;5.200;2023-08-06T03:12:33;29.95;;;17.92;;
26319;SDS011;14024;52.226;5.200;2023-08-06T03:14:59;34.33;;;18.98;;
26319;SDS011;14024;52.226;5.200;2023-08-06T03:17:25;30.08;;;16.73;;
26319;SDS011;14024;52.226;5.200;2023-08-06T03:19:51;29.63;;;17.73;;
26319;SDS011;14024;52.226;5.200;2023-08-06T03:22:17;26.35;;;16.33;;
26319;SDS011;14024;52.226;5.200;2023-08-06T03:24:43;28.73;;;16.13;;
26319;SDS011;14024;52.226;5.200;2023-08-06T03:27:09;31.20;;;17.15;;
26319;SDS011;14024;52.226;5.200;2023-08-06T03:29:35;29.27;;;16.58;;
26319;SDS011;14024;52.226;5.200;2023-08-06T03:32:01;29.00;;;17.73;;
26319;SDS011;14024;52.226;5.200;2023-08-06T03:34:27;29.80;;;16.52;;
26319;SDS011;14024;52.226;5.200;2023-08-06T03:36:53;30.42;;;17.35;;
26319;SDS011;14024;52.226;5.200;2023-08-06T03:39:19;27.45;;;16.92;;
26319;SDS011;14024;52.226;5.200;2023-08-06T03:41:45;26.70;;;17.40;;
26319;SDS011;14024;52.226;5.200;2023-08-06T03:44:13;27.85;;;18.08;;
26319;SDS011;14024;52.226;5.200;2023-08-06T03:46:39;25.85;;;17.05;;
26319;SDS011;14024;52.226;5.200;2023-08-06T03:49:05;29.63;;;17.55;;
26319;SDS011;14024;52.226;5.200;2023-08-06T03:51:31;25.50;;;16.23;;
26319;SDS011;14024;52.226;5.200;2023-08-06T03:53:57;27.85;;;16.73;;
26319;SDS011;14024;52.226;5.200;2023-08-06T03:56:23;29.90;;;16.30;;
26319;SDS011;14024;52.226;5.200;2023-08-06T03:58:49;31.00;;;16.60;;
26319;SDS011;14024;52.226;5.200;2023-08-06T04:01:15;25.88;;;15.27;;
26319;SDS011;14024;52.226;5.200;2023-08-06T04:03:41;27.40;;;16.95;;
26319;SDS011;14024;52.226;5.200;2023-08-06T04:06:07;24.77;;;16.08;;
26319;SDS011;14024;52.226;5.200;2023-08-06T04:08:33;28.17;;;16.85;;
26319;SDS011;14024;52.226;5.200;2023-08-06T04:10:59;24.65;;;15.60;;
26319;SDS011;14024;52.226;5.200;2023-08-06T04:13:25;23.23;;;15.30;;
26319;SDS011;14024;52.226;5.200;2023-08-06T04:15:52;22.35;;;15.13;;
26319;SDS011;14024;52.226;5.200;2023-08-06T04:18:19;23.92;;;15.00;;
26319;SDS011;14024;52.226;5.200;2023-08-06T04:20:45;21.63;;;13.80;;
26319;SDS011;14024;52.226;5.200;2023-08-06T04:23:12;19.20;;;13.27;;
26319;SDS011;14024;52.226;5.200;2023-08-06T04:25:38;20.33;;;12.60;;
26319;SDS011;14024;52.226;5.200;2023-08-06T04:28:04;21.02;;;13.50;;
26319;SDS011;14024;52.226;5.200;2023-08-06T04:30:30;22.02;;;12.98;;
26319;SDS011;14024;52.226;5.200;2023-08-06T04:32:56;23.10;;;13.70;;
26319;SDS011;14024;52.226;5.200;2023-08-06T04:35:23;23.65;;;13.45;;
26319;SDS011;14024;52.226;5.200;2023-08-06T04:37:49;20.58;;;13.27;;
26319;SDS011;14024;52.226;5.200;2023-08-06T04:40:15;21.27;;;14.32;;
26319;SDS011;14024;52.226;5.200;2023-08-06T04:42:41;21.63;;;13.13;;
26319;SDS011;14024;52.226;5.200;2023-08-06T04:45:07;21.65;;;12.57;;
26319;SDS011;14024;52.226;5.200;2023-08-06T04:47:33;23.40;;;13.70;;
26319;SDS011;14024;52.226;5.200;2023-08-06T04:49:59;22.13;;;13.63;;
26319;SDS011;14024;52.226;5.200;2023-08-06T04:52:26;24.27;;;15.07;;
26319;SDS011;14024;52.226;5.200;2023-08-06T04:54:53;23.65;;;14.65;;
26319;SDS011;14024;52.226;5.200;2023-08-06T04:57:19;25.25;;;14.48;;
26319;SDS011;14024;52.226;5.200;2023-08-06T04:59:45;27.00;;;14.70;;
26319;SDS011;14024;52.226;5.200;2023-08-06T05:02:11;24.77;;;15.32;;
26319;SDS011;14024;52.226;5.200;2023-08-06T05:04:37;26.95;;;14.15;;
26319;SDS011;14024;52.226;5.200;2023-08-06T05:07:04;25.02;;;14.10;;
26319;SDS011;14024;52.226;5.200;2023-08-06T05:09:30;24.13;;;14.10;;
26319;SDS011;14024;52.226;5.200;2023-08-06T05:11:56;27.17;;;15.07;;
26319;SDS011;14024;52.226;5.200;2023-08-06T05:14:22;26.27;;;15.60;;
26319;SDS011;14024;52.226;5.200;2023-08-06T05:16:48;24.90;;;14.90;;
26319;SDS011;14024;52.226;5.200;2023-08-06T05:19:14;26.20;;;15.68;;
26319;SDS011;14024;52.226;5.200;2023-08-06T05:21:40;22.58;;;14.25;;
26319;SDS011;14024;52.226;5.200;2023-08-06T05:24:06;25.42;;;14.82;;
26319;SDS011;14024;52.226;5.200;2023-08-06T05:26:32;26.08;;;15.48;;
26319;SDS011;14024;52.226;5.200;2023-08-06T05:28:58;26.83;;;16.15;;
26319;SDS011;14024;52.226;5.200;2023-08-06T05:31:25;27.80;;;16.17;;
26319;SDS011;14024;52.226;5.200;2023-08-06T05:33:51;28.27;;;16.02;;
26319;SDS011;14024;52.226;5.200;2023-08-06T05:36:17;25.35;;;15.27;;
26319;SDS011;14024;52.226;5.200;2023-08-06T05:38:43;23.60;;;15.45;;
26319;SDS011;14024;52.226;5.200;2023-08-06T05:41:09;27.45;;;16.33;;
26319;SDS011;14024;52.226;5.200;2023-08-06T05:43:35;25.88;;;15.73;;
26319;SDS011;14024;52.226;5.200;2023-08-06T05:46:01;20.80;;;13.40;;
26319;SDS011;14024;52.226;5.200;2023-08-06T05:48:27;24.15;;;14.38;;
26319;SDS011;14024;52.226;5.200;2023-08-06T05:50:53;25.10;;;15.13;;
26319;SDS011;14024;52.226;5.200;2023-08-06T05:53:19;25.33;;;15.07;;
26319;SDS011;14024;52.226;5.200;2023-08-06T05:55:47;30.83;;;17.25;;
26319;SDS011;14024;52.226;5.200;2023-08-06T05:58:13;29.17;;;16.98;;
26319;SDS011;14024;52.226;5.200;2023-08-06T06:00:39;23.25;;;15.07;;
26319;SDS011;14024;52.226;5.200;2023-08-06T06:03:05;19.17;;;12.50;;
26319;SDS011;14024;52.226;5.200;2023-08-06T06:05:31;13.43;;;8.45;;
26319;SDS011;14024;52.226;5.200;2023-08-06T06:07:57;11.00;;;7.55;;
26319;SDS011;14024;52.226;5.200;2023-08-06T06:10:23;8.52;;;6.28;;
26319;SDS011;14024;52.226;5.200;2023-08-06T06:12:49;9.10;;;6.10;;
26319;SDS011;14024;52.226;5.200;2023-08-06T06:15:15;6.00;;;4.93;;
26319;SDS011;14024;52.226;5.200;2023-08-06T06:17:41;8.10;;;4.70;;
26319;SDS011;14024;52.226;5.200;2023-08-06T06:20:07;6.07;;;4.93;;
26319;SDS011;14024;52.226;5.200;2023-08-06T06:22:33;6.68;;;4.82;;
26319;SDS011;14024;52.226;5.200;2023-08-06T06:24:59;7.22;;;4.97;;
26319;SDS011;14024;52.226;5.200;2023-08-06T06:27:25;4.97;;;4.07;;
26319;SDS011;14024;52.226;5.200;2023-08-06T06:29:51;4.78;;;3.90;;
26319;SDS011;14024;52.226;5.200;2023-08-06T06:32:19;5.53;;;3.65;;
26319;SDS011;14024;52.226;5.200;2023-08-06T06:34:45;3.63;;;2.55;;
26319;SDS011;14024;52.226;5.200;2023-08-06T06:37:11;4.03;;;2.45;;
26319;SDS011;14024;52.226;5.200;2023-08-06T06:39:37;3.90;;;3.08;;
26319;SDS011;14024;52.226;5.200;2023-08-06T06:42:03;5.72;;;3.67;;
26319;SDS011;14024;52.226;5.200;2023-08-06T06:44:29;5.00;;;3.97;;
26319;SDS011;14024;52.226;5.200;2023-08-06T06:46:55;4.95;;;3.60;;
26319;SDS011;14024;52.226;5.200;2023-08-06T06:49:21;5.82;;;3.47;;
26319;SDS011;14024;52.226;5.200;2023-08-06T06:51:47;6.13;;;4.30;;
26319;SDS011;14024;52.226;5.200;2023-08-06T06:54:13;5.30;;;3.95;;
26319;SDS011;14024;52.226;5.200;2023-08-06T06:56:39;6.28;;;3.90;;
26319;SDS011;14024;52.226;5.200;2023-08-06T06:59:05;5.20;;;4.10;;
26319;SDS011;14024;52.226;5.200;2023-08-06T07:01:31;5.63;;;4.28;;
26319;SDS011;14024;52.226;5.200;2023-08-06T07:03:57;5.65;;;4.13;;
26319;SDS011;14024;52.226;5.200;2023-08-06T07:06:23;7.20;;;4.90;;
26319;SDS011;14024;52.226;5.200;2023-08-06T07:08:49;8.05;;;5.32;;
26319;SDS011;14024;52.226;5.200;2023-08-06T07:11:15;8.35;;;5.07;;
26319;SDS011;14024;52.226;5.200;2023-08-06T07:13:41;6.75;;;4.90;;
26319;SDS011;14024;52.226;5.200;2023-08-06T07:16:07;7.90;;;5.45;;
26319;SDS011;14024;52.226;5.200;2023-08-06T07:18:33;11.23;;;8.27;;
26319;SDS011;14024;52.226;5.200;2023-08-06T07:20:59;8.52;;;6.32;;
26319;SDS011;14024;52.226;5.200;2023-08-06T07:23:26;8.63;;;6.53;;
26319;SDS011;14024;52.226;5.200;2023-08-06T07:25:52;10.20;;;8.55;;
26319;SDS011;14024;52.226;5.200;2023-08-06T07:28:18;7.75;;;5.57;;
26319;SDS011;14024;52.226;5.200;2023-08-06T07:30:44;8.13;;;5.50;;
26319;SDS011;14024;52.226;5.200;2023-08-06T07:33:10;7.40;;;4.63;;
26319;SDS011;14024;52.226;5.200;2023-08-06T07:35:37;5.05;;;4.05;;
26319;SDS011;14024;52.226;5.200;2023-08-06T07:38:03;7.32;;;4.88;;
26319;SDS011;14024;52.226;5.200;2023-08-06T07:40:29;7.93;;;4.95;;
26319;SDS011;14024;52.226;5.200;2023-08-06T07:42:55;6.18;;;4.28;;
26319;SDS011;14024;52.226;5.200;2023-08-06T07:45:21;7.70;;;5.13;;
26319;SDS011;14024;52.226;5.200;2023-08-06T07:47:47;6.82;;;4.90;;
26319;SDS011;14024;52.226;5.200;2023-08-06T07:50:13;7.05;;;4.63;;
26319;SDS011;14024;52.226;5.200;2023-08-06T07:52:40;6.93;;;5.18;;
26319;SDS011;14024;52.226;5.200;2023-08-06T07:55:06;9.15;;;5.18;;
26319;SDS011;14024;52.226;5.200;2023-08-06T07:57:32;9.73;;;4.90;;
26319;SDS011;14024;52.226;5.200;2023-08-06T07:59:59;7.25;;;5.00;;
26319;SDS011;14024;52.226;5.200;2023-08-06T08:02:25;8.38;;;5.20;;
26319;SDS011;14024;52.226;5.200;2023-08-06T08:04:51;7.93;;;5.10;;
26319;SDS011;14024;52.226;5.200;2023-08-06T08:07:17;9.40;;;5.53;;
26319;SDS011;14024;52.226;5.200;2023-08-06T08:09:43;7.68;;;5.53;;
26319;SDS011;14024;52.226;5.200;2023-08-06T08:12:09;12.73;;;6.10;;
26319;SDS011;14024;52.226;5.200;2023-08-06T08:14:35;11.45;;;6.35;;
26319;SDS011;14024;52.226;5.200;2023-08-06T08:17:05;11.05;;;6.90;;
26319;SDS011;14024;52.226;5.200;2023-08-06T08:19:31;13.10;;;6.28;;
26319;SDS011;14024;52.226;5.200;2023-08-06T08:21:58;9.50;;;6.50;;
26319;SDS011;14024;52.226;5.200;2023-08-06T08:24:24;9.15;;;6.00;;
26319;SDS011;14024;52.226;5.200;2023-08-06T08:26:50;10.20;;;6.15;;
26319;SDS011;14024;52.226;5.200;2023-08-06T08:29:16;8.98;;;6.03;;
26319;SDS011;14024;52.226;5.200;2023-08-06T08:31:43;10.68;;;6.50;;
26319;SDS011;14024;52.226;5.200;2023-08-06T08:34:09;10.43;;;7.15;;
26319;SDS011;14024;52.226;5.200;2023-08-06T08:36:35;9.30;;;7.07;;
26319;SDS011;14024;52.226;5.200;2023-08-06T08:39:01;10.40;;;6.60;;
26319;SDS011;14024;52.226;5.200;2023-08-06T08:41:28;13.70;;;7.88;;
26319;SDS011;14024;52.226;5.200;2023-08-06T08:43:54;12.38;;;7.68;;
26319;SDS011;14024;52.226;5.200;2023-08-06T08:46:21;13.70;;;7.75;;
26319;SDS011;14024;52.226;5.200;2023-08-06T08:48:48;11.00;;;6.50;;
26319;SDS011;14024;52.226;5.200;2023-08-06T08:51:13;13.63;;;7.40;;
26319;SDS011;14024;52.226;5.200;2023-08-06T08:53:40;10.43;;;6.70;;
26319;SDS011;14024;52.226;5.200;2023-08-06T08:56:07;12.40;;;7.78;;
26319;SDS011;14024;52.226;5.200;2023-08-06T08:58:33;11.48;;;7.30;;
26319;SDS011;14024;52.226;5.200;2023-08-06T09:00:59;14.00;;;7.90;;
26319;SDS011;14024;52.226;5.200;2023-08-06T09:03:26;10.82;;;7.50;;
26319;SDS011;14024;52.226;5.200;2023-08-06T09:05:53;11.63;;;7.53;;
26319;SDS011;14024;52.226;5.200;2023-08-06T09:08:20;13.57;;;8.10;;
26319;SDS011;14024;52.226;5.200;2023-08-06T09:10:48;9.88;;;6.88;;
26319;SDS011;14024;52.226;5.200;2023-08-06T09:13:14;13.00;;;7.35;;
26319;SDS011;14024;52.226;5.200;2023-08-06T09:15:40;10.57;;;7.20;;
26319;SDS011;14024;52.226;5.200;2023-08-06T09:18:09;9.95;;;6.70;;
26319;SDS011;14024;52.226;5.200;2023-08-06T09:20:37;10.10;;;7.32;;
26319;SDS011;14024;52.226;5.200;2023-08-06T09:23:09;10.23;;;7.38;;
26319;SDS011;14024;52.226;5.200;2023-08-06T09:25:39;13.63;;;7.40;;
26319;SDS011;14024;52.226;5.200;2023-08-06T09:28:06;10.50;;;7.80;;
26319;SDS011;14024;52.226;5.200;2023-08-06T09:30:33;10.18;;;7.15;;
26319;SDS011;14024;52.226;5.200;2023-08-06T09:32:59;12.50;;;7.68;;
26319;SDS011;14024;52.226;5.200;2023-08-06T09:35:29;10.02;;;6.85;;
26319;SDS011;14024;52.226;5.200;2023-08-06T09:37:55;12.48;;;8.07;;
26319;SDS011;14024;52.226;5.200;2023-08-06T09:40:28;12.13;;;6.63;;
26319;SDS011;14024;52.226;5.200;2023-08-06T09:42:55;12.50;;;7.32;;
26319;SDS011;14024;52.226;5.200;2023-08-06T09:45:21;11.32;;;6.60;;
26319;SDS011;14024;52.226;5.200;2023-08-06T09:47:50;16.65;;;7.82;;
26319;SDS011;14024;52.226;5.200;2023-08-06T09:52:47;12.95;;;7.65;;
26319;SDS011;14024;52.226;5.200;2023-08-06T09:55:14;17.48;;;8.57;;
26319;SDS011;14024;52.226;5.200;2023-08-06T09:57:41;11.48;;;7.40;;
26319;SDS011;14024;52.226;5.200;2023-08-06T10:00:07;13.63;;;8.15;;
26319;SDS011;14024;52.226;5.200;2023-08-06T10:02:37;14.10;;;8.60;;
26319;SDS011;14024;52.226;5.200;2023-08-06T10:05:04;13.85;;;7.95;;
26319;SDS011;14024;52.226;5.200;2023-08-06T10:07:30;15.48;;;8.18;;
26319;SDS011;14024;52.226;5.200;2023-08-06T10:09:57;16.38;;;7.30;;
26319;SDS011;14024;52.226;5.200;2023-08-06T10:12:23;18.58;;;7.70;;
26319;SDS011;14024;52.226;5.200;2023-08-06T10:14:50;23.45;;;8.15;;
26319;SDS011;14024;52.226;5.200;2023-08-06T10:17:16;21.80;;;6.65;;
26319;SDS011;14024;52.226;5.200;2023-08-06T10:19:43;13.90;;;6.25;;
26319;SDS011;14024;52.226;5.200;2023-08-06T10:22:09;13.40;;;6.10;;
26319;SDS011;14024;52.226;5.200;2023-08-06T10:24:54;13.00;;;6.57;;
26319;SDS011;14024;52.226;5.200;2023-08-06T10:27:31;14.13;;;6.45;;
26319;SDS011;14024;52.226;5.200;2023-08-06T10:32:48;12.05;;;5.93;;
26319;SDS011;14024;52.226;5.200;2023-08-06T10:38:04;12.95;;;5.85;;
26319;SDS011;14024;52.226;5.200;2023-08-06T10:40:31;12.68;;;6.45;;
26319;SDS011;14024;52.226;5.200;2023-08-06T10:43:01;14.60;;;5.30;;
26319;SDS011;14024;52.226;5.200;2023-08-06T10:45:27;10.68;;;5.40;;
26319;SDS011;14024;52.226;5.200;2023-08-06T10:47:56;9.95;;;4.75;;
26319;SDS011;14024;52.226;5.200;2023-08-06T10:50:23;11.30;;;5.43;;
26319;SDS011;14024;52.226;5.200;2023-08-06T10:52:49;7.10;;;3.95;;
26319;SDS011;14024;52.226;5.200;2023-08-06T10:55:22;10.73;;;4.70;;
26319;SDS011;14024;52.226;5.200;2023-08-06T10:57:49;8.30;;;4.45;;
26319;SDS011;14024;52.226;5.200;2023-08-06T11:00:15;9.68;;;4.45;;
26319;SDS011;14024;52.226;5.200;2023-08-06T11:02:41;9.43;;;4.30;;
26319;SDS011;14024;52.226;5.200;2023-08-06T11:05:09;10.93;;;4.75;;
26319;SDS011;14024;52.226;5.200;2023-08-06T11:07:35;16.05;;;3.65;;
26319;SDS011;14024;52.226;5.200;2023-08-06T11:10:02;7.97;;;4.55;;
26319;SDS011;14024;52.226;5.200;2023-08-06T11:12:29;7.53;;;4.15;;
26319;SDS011;14024;52.226;5.200;2023-08-06T11:14:55;7.28;;;3.97;;
26319;SDS011;14024;52.226;5.200;2023-08-06T11:17:21;6.55;;;3.25;;
26319;SDS011;14024;52.226;5.200;2023-08-06T11:19:47;8.60;;;3.67;;
26319;SDS011;14024;52.226;5.200;2023-08-06T11:22:14;8.70;;;3.75;;
26319;SDS011;14024;52.226;5.200;2023-08-06T11:24:40;6.63;;;3.22;;
26319;SDS011;14024;52.226;5.200;2023-08-06T11:27:15;5.90;;;3.20;;
26319;SDS011;14024;52.226;5.200;2023-08-06T11:29:42;8.10;;;3.30;;
26319;SDS011;14024;52.226;5.200;2023-08-06T11:32:08;6.22;;;3.20;;
26319;SDS011;14024;52.226;5.200;2023-08-06T11:34:35;6.03;;;2.97;;
26319;SDS011;14024;52.226;5.200;2023-08-06T11:37:04;7.20;;;3.30;;
26319;SDS011;14024;52.226;5.200;2023-08-06T11:39:34;4.88;;;3.00;;
26319;SDS011;14024;52.226;5.200;2023-08-06T11:42:00;7.40;;;3.55;;
26319;SDS011;14024;52.226;5.200;2023-08-06T11:44:31;15.80;;;3.95;;
26319;SDS011;14024;52.226;5.200;2023-08-06T11:46:58;8.20;;;2.83;;
26319;SDS011;14024;52.226;5.200;2023-08-06T11:52:15;6.60;;;2.70;;
26319;SDS011;14024;52.226;5.200;2023-08-06T11:54:44;5.77;;;2.83;;
26319;SDS011;14024;52.226;5.200;2023-08-06T11:57:10;7.47;;;3.53;;
26319;SDS011;14024;52.226;5.200;2023-08-06T11:59:37;5.35;;;3.25;;
26319;SDS011;14024;52.226;5.200;2023-08-06T12:02:04;5.35;;;2.95;;
26319;SDS011;14024;52.226;5.200;2023-08-06T12:04:30;5.38;;;2.75;;
26319;SDS011;14024;52.226;5.200;2023-08-06T12:07:04;7.65;;;3.30;;
26319;SDS011;14024;52.226;5.200;2023-08-06T12:09:31;9.82;;;2.97;;
26319;SDS011;14024;52.226;5.200;2023-08-06T12:11:57;5.32;;;2.42;;
26319;SDS011;14024;52.226;5.200;2023-08-06T12:14:23;5.97;;;2.67;;
26319;SDS011;14024;52.226;5.200;2023-08-06T12:16:49;5.75;;;3.25;;
26319;SDS011;14024;52.226;5.200;2023-08-06T12:19:15;5.43;;;3.15;;
26319;SDS011;14024;52.226;5.200;2023-08-06T12:21:41;4.80;;;2.70;;
26319;SDS011;14024;52.226;5.200;2023-08-06T12:24:07;6.32;;;3.15;;
26319;SDS011;14024;52.226;5.200;2023-08-06T12:26:34;8.48;;;3.20;;
26319;SDS011;14024;52.226;5.200;2023-08-06T12:29:00;6.65;;;3.17;;
26319;SDS011;14024;52.226;5.200;2023-08-06T12:31:26;9.98;;;3.78;;
26319;SDS011;14024;52.226;5.200;2023-08-06T12:33:52;6.35;;;3.15;;
26319;SDS011;14024;52.226;5.200;2023-08-06T12:36:18;8.80;;;3.70;;
26319;SDS011;14024;52.226;5.200;2023-08-06T12:38:44;5.35;;;3.22;;
26319;SDS011;14024;52.226;5.200;2023-08-06T12:41:10;8.60;;;3.47;;
26319;SDS011;14024;52.226;5.200;2023-08-06T12:43:36;11.70;;;4.70;;
26319;SDS011;14024;52.226;5.200;2023-08-06T12:46:02;7.47;;;3.67;;
26319;SDS011;14024;52.226;5.200;2023-08-06T12:48:29;9.55;;;4.15;;
26319;SDS011;14024;52.226;5.200;2023-08-06T12:50:55;10.13;;;4.20;;
26319;SDS011;14024;52.226;5.200;2023-08-06T12:53:21;8.68;;;4.30;;
26319;SDS011;14024;52.226;5.200;2023-08-06T12:55:48;7.35;;;3.95;;
26319;SDS011;14024;52.226;5.200;2023-08-06T12:58:14;6.57;;;3.60;;
26319;SDS011;14024;52.226;5.200;2023-08-06T13:00:40;5.85;;;3.58;;
26319;SDS011;14024;52.226;5.200;2023-08-06T13:03:06;9.57;;;3.50;;
26319;SDS011;14024;52.226;5.200;2023-08-06T13:05:32;6.78;;;3.67;;
26319;SDS011;14024;52.226;5.200;2023-08-06T13:07:58;12.50;;;3.72;;
26319;SDS011;14024;52.226;5.200;2023-08-06T13:10:24;6.63;;;3.70;;
26319;SDS011;14024;52.226;5.200;2023-08-06T13:12:52;7.07;;;3.42;;
26319;SDS011;14024;52.226;5.200;2023-08-06T13:15:18;6.10;;;3.63;;
26319;SDS011;14024;52.226;5.200;2023-08-06T13:17:46;8.23;;;3.40;;
26319;SDS011;14024;52.226;5.200;2023-08-06T13:20:13;6.70;;;3.83;;
26319;SDS011;14024;52.226;5.200;2023-08-06T13:22:39;5.50;;;3.00;;
26319;SDS011;14024;52.226;5.200;2023-08-06T13:25:05;7.75;;;3.42;;
26319;SDS011;14024;52.226;5.200;2023-08-06T13:27:31;9.45;;;3.85;;
26319;SDS011;14024;52.226;5.200;2023-08-06T13:29:57;6.03;;;3.33;;
26319;SDS011;14024;52.226;5.200;2023-08-06T13:32:23;9.32;;;3.65;;
26319;SDS011;14024;52.226;5.200;2023-08-06T13:34:49;8.68;;;3.20;;
26319;SDS011;14024;52.226;5.200;2023-08-06T13:37:15;8.07;;;3.10;;
26319;SDS011;14024;52.226;5.200;2023-08-06T13:39:41;7.30;;;3.75;;
26319;SDS011;14024;52.226;5.200;2023-08-06T13:42:07;8.35;;;3.47;;
26319;SDS011;14024;52.226;5.200;2023-08-06T13:44:34;8.02;;;3.28;;
26319;SDS011;14024;52.226;5.200;2023-08-06T13:47:01;6.47;;;2.92;;
26319;SDS011;14024;52.226;5.200;2023-08-06T13:49:27;8.18;;;3.35;;
26319;SDS011;14024;52.226;5.200;2023-08-06T13:51:54;8.80;;;3.53;;
26319;SDS011;14024;52.226;5.200;2023-08-06T13:54:20;8.55;;;3.30;;
26319;SDS011;14024;52.226;5.200;2023-08-06T13:56:46;6.07;;;3.80;;
26319;SDS011;14024;52.226;5.200;2023-08-06T13:59:12;8.45;;;3.97;;
26319;SDS011;14024;52.226;5.200;2023-08-06T14:01:39;6.32;;;3.70;;
26319;SDS011;14024;52.226;5.200;2023-08-06T14:04:05;4.82;;;3.17;;
26319;SDS011;14024;52.226;5.200;2023-08-06T14:06:31;7.38;;;2.95;;
26319;SDS011;14024;52.226;5.200;2023-08-06T14:08:57;6.90;;;3.33;;
26319;SDS011;14024;52.226;5.200;2023-08-06T14:11:23;4.20;;;3.15;;
26319;SDS011;14024;52.226;5.200;2023-08-06T14:13:49;4.70;;;3.15;;
26319;SDS011;14024;52.226;5.200;2023-08-06T14:16:15;4.68;;;3.15;;
26319;SDS011;14024;52.226;5.200;2023-08-06T14:18:41;7.30;;;4.07;;
26319;SDS011;14024;52.226;5.200;2023-08-06T14:21:08;5.57;;;3.45;;
26319;SDS011;14024;52.226;5.200;2023-08-06T14:23:34;4.88;;;3.13;;
26319;SDS011;14024;52.226;5.200;2023-08-06T14:26:00;5.93;;;3.78;;
26319;SDS011;14024;52.226;5.200;2023-08-06T14:28:26;7.97;;;3.75;;
26319;SDS011;14024;52.226;5.200;2023-08-06T14:30:52;8.23;;;3.22;;
26319;SDS011;14024;52.226;5.200;2023-08-06T14:33:18;5.97;;;3.20;;
26319;SDS011;14024;52.226;5.200;2023-08-06T14:35:44;7.70;;;2.30;;
26319;SDS011;14024;52.226;5.200;2023-08-06T14:38:10;6.68;;;2.70;;
26319;SDS011;14024;52.226;5.200;2023-08-06T14:40:36;5.90;;;2.15;;
26319;SDS011;14024;52.226;5.200;2023-08-06T14:43:06;12.00;;;2.50;;
26319;SDS011;14024;52.226;5.200;2023-08-06T14:45:32;3.92;;;2.40;;
26319;SDS011;14024;52.226;5.200;2023-08-06T14:47:59;6.63;;;2.30;;